Terminal Aerodrome Forecast
Issued by NWS

Home | Current Version | Previous Version | Text Only | Print | Product List | Glossary On
Versions: 1 2 3 4 5 6 7 8 9 10 11 12 13 14 15 16 17 18 19 20 21 22 23 24 25 26 27 28 29
000
FTUS41 KBUF 250541
TAFIAG
TAF
KIAG 250541Z 2506/2606 24004KT P6SM SCT100
     FM251400 25013G19KT P6SM FEW250
     FM251600 24016G30KT P6SM VCSH BKN060
     FM260000 25009KT P6SM FEW250
     FM260100 25008KT P6SM VCSH BKN060
     FM260300 26008KT P6SM BKN045=

USA.gov is the U.S. government's official web portal to all federal, state and local government web resources and services.